Houthulst, Belgium
Current Conditions -  °F | °C
As of 1:25 PM on Friday 19 Dec 2014 (Local Time) from EBFN Reporting Station
Broken Clouds Broken Clouds  
Wind Chill: 50°   Ceiling: 3700
Heat Index: 50°   Visibility: 6mi
Dew Point: 41°   Wind: 17mph
Humidity: 71%   Direction: 300°WNW
Pressure: 29.97"   Gusts: NA
Location:  50.98°N, 2.95°E
Report Text: EBFN 191225Z 30015KT 9999 FEW024 SCT031 BKN037 10/05 Q1015 BLU BLU TEMPO WHT
Loading
Personal Weather Stations






























Interactive Weather Map New forecast layout! Learn more

10-Day Weather Forecast

Advertisements
Track Severe Weather on mobile